Time;durP1;ratioP1;P1;durP2;ratioP2;P2;SDS_P1;SDS_P2;PMS_P1;PMS_P2;Temp;Humidity;BMP_temperature;BMP_pressure;BME280_temperature;BME280_humidity;BME280_pressure;Samples;Min_cycle;Max_cycle;Signal;HPM_P1;HPM_P2
2022/06/22 15:04:27;;;;;;;18.42;7.63;;;35.20;41.00;;;26.94;53.02;95052.56;5078560;27;20116;-51
2022/06/22 15:07:13;;;;;;;25.90;7.60;;;35.60;39.60;;;26.82;52.77;95063.03;5066541;28;20020;-48
2022/06/22 15:10:37;;;;;;;14.30;7.18;;;36.40;38.00;;;26.83;53.26;95054.47;5045583;28;20024;-51
2022/06/22 15:13:45;;;;;;;19.20;7.53;;;37.40;36.50;;;26.91;51.12;95050.59;5067320;28;20028;-50
2022/06/22 15:16:37;;;;;;;20.95;6.95;;;38.30;34.80;;;26.45;53.60;95042.06;5066829;28;20102;-48
2022/06/22 15:19:37;;;;;;;21.75;7.90;;;37.60;34.30;;;26.41;53.40;95042.06;5066121;28;20078;-49
2022/06/22 15:22:38;;;;;;;24.70;7.18;;;37.80;33.90;;;26.12;54.55;95032.09;5065911;28;20028;-49
2022/06/22 15:26:14;;;;;;;19.02;7.43;;;38.00;33.40;;;26.82;53.59;95031.03;5043384;28;20055;-50
2022/06/22 15:29:17;;;;;;;23.33;7.22;;;38.50;33.20;;;27.02;53.55;95042.47;5010260;23;20077;-45
2022/06/22 15:31:56;;;;;;;25.02;7.25;;;38.20;33.20;;;27.07;51.84;95024.91;4971002;28;20445;-50
2022/06/22 15:34:36;;;;;;;19.27;7.22;;;38.40;32.80;;;26.80;52.90;95005.28;4988145;28;20360;-52
2022/06/22 15:37:32;;;;;;;18.30;6.35;;;38.60;32.20;;;26.86;52.87;95006.47;4986222;28;20041;-49
2022/06/22 15:40:50;;;;;;;18.45;7.28;;;38.80;32.00;;;26.51;53.38;95005.91;4979038;28;20030;-48
2022/06/22 15:44:11;;;;;;;19.85;6.43;;;39.30;31.30;;;26.64;53.03;95003.63;4944384;28;20061;-49
2022/06/22 15:47:21;;;;;;;21.90;8.07;;;39.80;30.70;;;27.47;51.42;95009.44;4977883;28;20056;-45
2022/06/22 15:50:46;;;;;;;15.93;7.22;;;39.90;30.50;;;27.56;51.92;95004.41;4986253;28;20373;-48
2022/06/22 15:54:09;;;;;;;15.57;7.60;;;40.60;30.00;;;27.79;50.54;95009.53;4986588;28;20034;-48
2022/06/22 15:57:34;;;;;;;19.60;6.95;;;40.60;29.70;;;27.16;51.21;95019.91;4932530;28;20045;-46
2022/06/22 16:00:50;;;;;;;16.55;7.30;;;40.30;29.60;;;27.26;50.25;95026.56;4983173;28;20061;-52
2022/06/22 16:03:49;;;;;;;16.05;7.53;;;40.10;29.60;;;27.39;51.03;95033.25;4946117;28;20542;-49
2022/06/22 16:06:37;;;;;;;18.70;8.10;;;40.20;29.50;;;27.95;49.53;95028.31;4966663;28;20071;-48
2022/06/22 16:09:32;;;;;;;17.23;6.65;;;40.70;29.30;;;27.70;49.26;95023.56;4972662;28;20025;-49
2022/06/22 16:16:16;;;;;;;16.55;6.43;;;40.40;29.00;;;26.24;53.52;95020.88;4957482;28;20087;-48
2022/06/22 16:19:37;;;;;;;23.63;6.03;;;38.70;29.90;;;26.30;54.25;95025.63;4971663;28;20026;-48
2022/06/22 16:22:49;;;;;;;19.95;6.43;;;37.20;31.60;;;25.54;54.09;95000.75;4923311;28;20125;-50
2022/06/22 16:25:28;;;;;;;16.85;6.47;;;36.10;32.60;;;25.49;54.77;94998.38;4955274;28;20405;-44
2022/06/22 16:28:12;;;;;;;21.52;5.75;;;35.20;33.70;;;25.25;55.89;94996.94;4952281;28;20038;-46
2022/06/22 16:31:08;;;;;;;14.48;6.13;;;34.30;34.90;;;24.86;56.54;94989.09;4943428;28;20057;-44
2022/06/22 16:34:11;;;;;;;15.82;5.57;;;33.50;36.00;;;24.19;57.31;94993.22;4954948;28;20054;-45
2022/06/22 16:36:51;;;;;;;14.68;5.22;;;32.60;37.30;;;23.92;58.99;94997.84;4971976;28;20045;-45
2022/06/22 16:40:20;;;;;;;19.80;5.32;;;31.80;38.20;;;23.78;59.38;94984.81;4971235;28;20034;-42
2022/06/22 16:42:59;;;;;;;15.48;4.95;;;31.10;39.20;;;23.73;60.28;94970.72;4972876;28;20026;-47
2022/06/22 16:46:05;;;;;;;21.67;5.22;;;30.60;40.40;;;23.78;60.31;94968.50;4972795;28;20026;-49
2022/06/22 16:48:47;;;;;;;14.80;4.72;;;30.10;41.30;;;23.61;61.23;94944.47;4968955;28;20026;-46
2022/06/22 16:51:27;;;;;;;23.17;5.63;;;29.70;42.10;;;23.50;61.47;94919.03;4952216;28;20026;-48
2022/06/22 16:54:07;;;;;;;19.48;5.35;;;29.40;42.80;;;23.39;61.90;94912.66;4966078;28;20022;-46
2022/06/22 16:57:14;;;;;;;16.45;4.93;;;29.20;43.60;;;23.45;61.18;94917.41;4952414;28;20034;-48
2022/06/22 16:59:58;;;;;;;16.35;4.70;;;29.00;44.10;;;23.37;61.01;94934.75;4968939;28;20040;-47
2022/06/22 17:02:41;;;;;;;15.10;4.60;;;28.90;44.10;;;23.23;61.48;94942.66;4963997;28;20485;-47
2022/06/22 17:06:06;;;;;;;18.65;5.00;;;28.80;44.90;;;22.82;62.86;94940.31;4952758;28;20087;-46
2022/06/22 17:09:05;;;;;;;22.15;5.40;;;28.60;44.50;;;22.78;62.45;94957.66;4939985;28;20401;-49
2022/06/22 17:11:41;;;;;;;16.27;4.70;;;28.30;44.80;;;22.70;62.42;94974.97;4965521;28;20033;-47
2022/06/22 17:14:36;;;;;;;24.30;4.82;;;28.10;45.30;;;22.62;63.26;94982.94;4966341;28;20026;-46
2022/06/22 17:17:41;;;;;;;21.92;5.40;;;27.90;45.70;;;22.61;62.83;94999.59;4949590;28;20018;-50
2022/06/22 17:20:29;;;;;;;12.52;5.35;;;27.70;46.00;;;22.56;63.21;95013.44;4965801;28;20022;-46
2022/06/22 17:23:23;;;;;;;18.10;5.22;;;27.50;46.50;;;22.42;63.89;95005.00;4955267;28;20034;-48
2022/06/22 17:26:10;;;;;;;15.05;4.60;;;27.30;46.90;;;22.30;64.30;95012.09;4965336;28;20125;-51
2022/06/22 17:29:06;;;;;;;18.17;5.45;;;27.10;47.40;;;22.21;64.36;95013.44;4968905;28;20038;-47
2022/06/22 17:31:58;;;;;;;22.50;5.18;;;26.90;47.80;;;22.25;64.63;95030.56;4952029;28;20031;-50
2022/06/22 17:35:07;;;;;;;16.98;5.10;;;26.60;48.20;;;22.29;64.98;95053.16;4950048;28;20114;-48
2022/06/22 17:38:12;;;;;;;18.25;5.00;;;26.40;48.50;;;22.29;65.49;95059.34;4945760;28;20037;-45
2022/06/22 17:40:54;;;;;;;18.50;5.20;;;26.30;49.00;;;22.18;65.73;95037.38;4953827;28;20033;-46
2022/06/22 17:44:03;;;;;;;19.25;4.60;;;26.20;49.50;;;21.87;66.86;95029.25;4964003;28;20633;-46
2022/06/22 17:46:32;;;;;;;16.55;4.88;;;26.00;49.70;;;21.75;67.34;95049.09;4968411;28;20362;-52
2022/06/22 17:49:08;;;;;;;18.88;5.80;;;25.90;49.90;;;21.74;67.46;95077.31;4952932;28;20036;-49
2022/06/22 17:51:58;;;;;;;16.52;4.68;;;25.80;50.60;;;21.69;68.54;95107.41;4953028;28;20024;-46
2022/06/22 17:54:58;;;;;;;22.90;5.22;;;25.70;51.10;;;21.69;68.61;95145.34;4950621;28;20109;-49
2022/06/22 17:57:37;;;;;;;23.48;5.22;;;25.60;51.40;;;21.65;69.87;95175.06;4968507;28;20817;-50
2022/06/22 18:00:25;;;;;;;18.00;4.47;;;25.50;52.40;;;21.64;70.29;95197.88;4951847;28;20034;-49
2022/06/22 18:03:18;;;;;;;16.48;4.45;;;25.40;52.60;;;21.59;71.70;95208.97;4968343;28;20045;-50
2022/06/22 18:05:55;;;;;;;14.57;4.80;;;25.30;53.00;;;21.53;73.54;95229.31;4967134;28;20030;-47
2022/06/22 18:09:03;;;;;;;18.63;4.72;;;25.30;53.10;;;21.41;74.21;95237.47;4950378;28;20040;-49
2022/06/22 18:11:47;;;;;;;20.23;5.63;;;25.20;54.10;;;21.31;74.67;95249.53;4969202;28;20053;-52
2022/06/22 18:14:27;;;;;;;19.17;5.25;;;25.00;54.60;;;21.21;75.08;95252.69;4916027;28;23916;-52
2022/06/22 18:17:12;;;;;;;17.30;5.45;;;24.80;54.70;;;21.05;76.00;95257.22;4934678;28;20168;-51
2022/06/22 18:19:56;;;;;;;19.50;5.20;;;24.70;55.50;;;21.00;76.75;95269.84;4935152;28;20126;-52
2022/06/22 18:22:54;;;;;;;26.55;5.38;;;24.60;56.30;;;20.92;77.44;95284.28;4937576;28;20125;-49
2022/06/22 18:25:38;;;;;;;21.35;4.60;;;24.40;56.80;;;20.72;78.74;95283.25;4936863;28;20030;-53
2022/06/22 18:28:10;;;;;;;17.40;4.85;;;24.20;57.10;;;20.52;79.37;95268.66;4950460;28;20050;-53
2022/06/22 18:31:04;;;;;;;18.00;4.95;;;24.20;57.40;;;20.22;79.63;95242.88;4950841;28;20033;-50
2022/06/22 18:33:51;;;;;;;20.70;5.32;;;24.00;57.70;;;20.11;80.55;95237.88;4936075;28;20079;-50
2022/06/22 18:36:49;;;;;;;20.15;5.25;;;23.80;58.00;;;19.88;82.26;95228.56;4950759;28;20019;-47
2022/06/22 18:43:19;;;;;;;19.23;6.10;;;23.50;58.70;;;19.46;84.21;95209.69;4947136;28;20049;-50
2022/06/22 18:46:04;;;;;;;20.60;6.10;;;23.30;59.00;;;19.31;85.16;95202.19;4935417;28;20069;-51
2022/06/22 18:48:55;;;;;;;18.65;6.35;;;23.20;59.60;;;19.25;85.36;95244.00;4933424;28;20180;-51
2022/06/22 18:51:42;;;;;;;19.38;6.32;;;23.10;60.10;;;19.18;86.27;95279.59;4934323;29;20109;-52
2022/06/22 18:54:36;;;;;;;19.10;6.82;;;23.00;60.90;;;19.17;86.25;95295.00;4932146;28;20061;-50
2022/06/22 18:57:36;;;;;;;22.23;6.35;;;22.90;61.30;;;19.14;87.15;95309.13;4950494;28;20031;-53
2022/06/22 19:00:26;;;;;;;22.25;7.35;;;22.80;61.70;;;19.09;88.65;95308.56;4950492;28;20074;-51
2022/06/22 19:03:03;;;;;;;18.02;6.25;;;22.80;62.40;;;19.05;88.20;95302.19;4918260;29;20616;-51
2022/06/22 19:05:32;;;;;;;23.40;6.32;;;22.70;62.80;;;19.05;88.28;95292.19;4933962;29;20110;-48
2022/06/22 19:08:29;;;;;;;17.98;5.93;;;22.70;62.70;;;18.91;88.32;95281.63;4950493;28;20413;-48
2022/06/22 19:11:07;;;;;;;13.15;4.72;;;22.70;63.40;;;18.87;86.90;95269.13;4919927;29;20023;-49
2022/06/22 19:13:51;;;;;;;11.18;3.28;;;22.70;63.10;;;18.72;86.03;95262.31;4933623;29;20041;-48
2022/06/22 19:16:54;;;;;;;9.07;3.33;;;22.60;63.10;;;18.65;85.77;95267.44;4917474;29;20555;-46
2022/06/22 19:19:53;;;;;;;11.70;2.90;;;22.50;63.00;;;18.48;85.92;95254.78;4950805;29;20412;-47
2022/06/22 19:22:35;;;;;;;6.28;2.72;;;22.50;62.80;;;18.37;85.98;95240.09;4950593;29;20066;-49
2022/06/22 19:26:13;;;;;;;4.53;2.33;;;22.40;62.80;;;18.30;86.05;95248.69;4933245;29;20114;-47
2022/06/22 19:29:12;;;;;;;3.17;1.30;;;22.20;63.00;;;17.96;85.35;95265.72;4932483;29;20039;-52
2022/06/22 19:31:59;;;;;;;3.85;1.60;;;22.10;62.80;;;17.85;85.11;95253.66;4932992;29;20038;-45
2022/06/22 19:34:56;;;;;;;4.53;1.27;;;22.00;62.80;;;17.62;85.47;95244.94;4950306;29;20030;-47
2022/06/22 19:38:18;;;;;;;2.50;1.20;;;21.90;62.80;;;17.39;83.94;95242.38;4950137;29;20026;-47
2022/06/22 19:41:27;;;;;;;3.30;1.30;;;21.70;62.50;;;17.19;84.25;95249.16;4925606;29;20043;-47
2022/06/22 19:44:58;;;;;;;6.13;1.23;;;21.60;62.50;;;17.10;84.74;95267.97;4950716;29;20118;-44
2022/06/22 19:48:02;;;;;;;2.83;1.20;;;21.40;62.60;;;16.93;84.69;95257.19;4924599;29;20041;-48
2022/06/22 19:51:21;;;;;;;3.40;1.35;;;21.30;62.70;;;16.75;84.98;95242.88;4945628;28;20035;-45
2022/06/22 19:54:23;;;;;;;6.75;1.48;;;21.10;62.90;;;16.75;85.07;95236.69;4949936;28;20045;-48
2022/06/22 19:56:58;;;;;;;1.95;1.10;;;20.90;62.90;;;16.72;84.68;95238.09;4944232;28;20018;-45
2022/06/22 19:59:35;;;;;;;3.50;1.20;;;20.80;63.10;;;16.62;84.97;95252.63;4953941;28;20034;-45
2022/06/22 20:02:44;;;;;;;5.53;1.10;;;20.70;63.30;;;16.62;85.12;95259.91;4937455;28;20485;-49
2022/06/22 20:05:45;;;;;;;2.03;1.02;;;20.60;63.50;;;16.52;84.81;95242.16;4938478;28;20014;-49
2022/06/22 20:08:16;;;;;;;4.50;1.20;;;20.50;63.60;;;16.50;85.07;95252.41;4933673;28;20426;-48
2022/06/22 20:10:58;;;;;;;5.32;1.40;;;20.50;63.60;;;16.46;85.30;95248.75;4917892;29;20060;-46
2022/06/22 20:14:11;;;;;;;5.20;1.40;;;20.40;64.00;;;16.41;85.32;95244.31;4926891;29;20122;-44
2022/06/22 20:17:20;;;;;;;3.58;1.23;;;20.30;64.10;;;16.36;85.49;95249.81;4945709;28;20437;-45
2022/06/22 20:19:47;;;;;;;3.22;1.30;;;20.30;63.90;;;16.33;85.67;95245.06;4952431;28;20038;-46
2022/06/22 20:22:50;;;;;;;3.58;1.20;;;20.20;64.00;;;16.29;85.78;95248.66;4936550;28;20109;-45
2022/06/22 20:25:34;;;;;;;3.30;1.33;;;20.10;64.50;;;16.22;85.90;95237.56;4936854;28;20038;-47
2022/06/22 20:28:53;;;;;;;2.88;0.80;;;20.10;64.60;;;16.12;86.15;95220.63;4949141;28;20047;-47
2022/06/22 20:31:46;;;;;;;3.13;1.20;;;20.10;64.70;;;16.04;86.53;95221.34;4953719;28;20386;-46
2022/06/22 20:34:52;;;;;;;1.77;1.08;;;20.00;64.90;;;16.04;86.32;95226.72;4938035;28;20058;-47
2022/06/22 20:37:43;;;;;;;2.83;1.13;;;19.90;64.90;;;16.01;86.92;95226.53;4922803;28;20090;-50
2022/06/22 20:40:51;;;;;;;7.10;1.30;;;19.90;65.90;;;15.99;86.85;95229.56;4927040;28;20141;-46
2022/06/22 20:43:37;;;;;;;4.57;1.50;;;19.90;65.30;;;15.96;86.22;95224.78;4927487;28;20609;-48
2022/06/22 20:46:43;;;;;;;2.90;1.30;;;19.80;65.30;;;15.88;86.73;95212.09;4952749;28;20050;-47
2022/06/22 20:49:23;;;;;;;5.38;1.40;;;19.80;65.50;;;15.84;86.86;95219.97;4938859;28;20022;-48
2022/06/22 20:52:06;;;;;;;6.22;1.45;;;19.70;65.50;;;15.80;87.47;95229.75;4922346;28;20026;-49
2022/06/22 20:54:41;;;;;;;4.25;1.25;;;19.70;65.90;;;15.75;87.47;95223.69;4954185;28;20046;-46
2022/06/22 20:57:17;;;;;;;3.28;1.40;;;19.70;65.80;;;15.68;88.36;95218.75;4937852;28;20035;-44
2022/06/22 21:00:18;;;;;;;3.88;1.33;;;19.60;65.80;;;15.64;88.45;95223.13;4938012;28;20482;-49
2022/06/22 21:02:53;;;;;;;7.10;1.83;;;19.60;66.00;;;15.60;88.88;95241.72;4922244;28;20043;-49
2022/06/22 21:05:46;;;;;;;7.38;2.17;;;19.50;66.20;;;15.55;89.72;95251.81;4937348;28;20038;-47
2022/06/22 21:08:26;;;;;;;4.50;1.75;;;19.50;66.60;;;15.55;89.81;95262.53;4954151;28;20465;-49
2022/06/22 21:11:20;;;;;;;5.68;1.90;;;19.40;66.70;;;15.54;90.29;95269.00;4954037;28;20118;-46
2022/06/22 21:14:08;;;;;;;2.92;1.80;;;19.40;67.00;;;15.53;90.55;95273.56;4953985;28;20019;-44
